»·PEaware :: BAW275 EGLL-KLAS

BAW275 :: EGLL-KLAS

FLIGHT INFORMATION

Flight Status: Arrived
Operator:
British Airways
More flights by this operator :: More flights under this callsign
Pilot: Henderson P. (1210)
Aircraft: BOEING 747-400 (WINGLETS)
(B744)
More flights by this aircraft type
Origin: EGLL Heathrow
United Kingdom
Destination: KLAS McCarran Intl
United States
More flights between these airports :: More routes between these airports
Route: +CPT3F CPT UL9 KENET UN14 OKTAD Q60 LANON UL18 LIPGO DCT ERNAN DCT GOMUP 60N015W 61N020W 64N030W 66N040W 67N050W DARUB 66N070W 65N075W 64N080W 60N091W YYQ J530 YQD J489 VLN GGW TCH DTA MPIRE SITEE3
File this flight plan on PilotEdge
Remarks:
Altitude:
(Current/Filed)
30,000ft
Speed:
(Current/Filed)
488kts
Departed: 20-Feb-19 09:18 AM
Arrived: 20-Feb-19 07:21 PM
Distance/Time
Traveled:
4529nm/10:03
Distance/Time
To Go:
Arrived

Flight Plot

Page will automatically refresh every two minutes.

Flight plan parsing failed; only flown route is shown


Map Options




Map Legend


Flown Route
Filed Route
Departure Airport
Arrival Airport
Navaid (VOR, NDB)
Fix

Horizontal Profiles

Position Reports

Time Latitude Longitude Heading Altitude Ground
Speed
20-Feb-19 08:32 51.472678 -0.463016 55 95ft 0kts
20-Feb-19 08:33 51.472678 -0.463016 55 95ft 0kts
20-Feb-19 08:34 51.472678 -0.463016 55 95ft 0kts
20-Feb-19 08:35 51.472678 -0.463016 55 95ft 0kts
20-Feb-19 08:36 51.472678 -0.463016 55 95ft 0kts
20-Feb-19 08:37 51.472678 -0.463016 55 95ft 0kts
20-Feb-19 08:38 51.472678 -0.463016 55 95ft 0kts
20-Feb-19 08:39 51.472678 -0.463016 55 95ft 0kts
20-Feb-19 08:40 51.472678 -0.463016 55 95ft 0kts
20-Feb-19 08:41 51.472678 -0.463016 55 95ft 0kts
20-Feb-19 08:42 51.472678 -0.463016 55 95ft 0kts
20-Feb-19 08:43 51.472678 -0.463016 55 95ft 0kts
20-Feb-19 08:44 51.472678 -0.463016 55 95ft 0kts
20-Feb-19 08:45 51.472678 -0.463016 55 95ft 0kts
20-Feb-19 08:46 51.472678 -0.463016 55 95ft 0kts
20-Feb-19 08:47 51.472678 -0.463016 55 95ft 0kts
20-Feb-19 08:48 51.472678 -0.463016 55 95ft 0kts
20-Feb-19 08:49 51.472678 -0.463016 55 95ft 0kts
20-Feb-19 08:50 51.472678 -0.463016 55 95ft 0kts
20-Feb-19 08:51 51.472678 -0.463016 55 95ft 0kts
20-Feb-19 08:52 51.472678 -0.463016 55 95ft 0kts
20-Feb-19 08:53 51.472678 -0.463016 55 95ft 0kts
20-Feb-19 08:54 51.472678 -0.463016 55 95ft 0kts
20-Feb-19 08:55 51.472678 -0.463016 55 95ft 0kts
20-Feb-19 08:56 51.472678 -0.463016 55 95ft 0kts
20-Feb-19 08:57 51.472678 -0.463016 55 95ft 0kts
20-Feb-19 08:58 51.472678 -0.463016 55 95ft 0kts
20-Feb-19 08:59 51.472678 -0.463016 55 95ft 0kts
20-Feb-19 09:00 51.472569 -0.463261 47 95ft 2kts
20-Feb-19 09:01 51.472055 -0.463722 355 95ft 2kts
20-Feb-19 09:03 51.471637 -0.463419 325 95ft 0kts
20-Feb-19 09:04 51.471637 -0.463419 325 95ft 0kts
20-Feb-19 09:05 51.471637 -0.463419 325 95ft 0kts
20-Feb-19 09:06 51.472275 -0.464196 305 95ft 6kts
20-Feb-19 09:07 51.472705 -0.467247 352 95ft 8kts
20-Feb-19 09:08 51.475144 -0.466502 89 95ft 10kts
20-Feb-19 09:09 51.475166 -0.460621 89 95ft 13kts
20-Feb-19 09:10 51.475962 -0.456299 90 95ft 12kts
20-Feb-19 09:11 51.475975 -0.450850 89 95ft 11kts
20-Feb-19 09:12 51.475588 -0.446596 175 95ft 9kts
20-Feb-19 09:13 51.475038 -0.442715 90 95ft 14kts
20-Feb-19 09:14 51.474541 -0.436641 90 95ft 10kts
20-Feb-19 09:15 51.476017 -0.435545 42 95ft 1kts
20-Feb-19 09:16 51.476034 -0.435520 42 95ft 0kts
20-Feb-19 09:17 51.476830 -0.434318 19 95ft 9kts
20-Feb-19 09:18 51.477623 -0.446655 269 96ft 99kts
20-Feb-19 09:19 51.477366 -0.516414 264 970ft 176kts
20-Feb-19 09:20 51.465508 -0.597230 251 2575ft 186kts
20-Feb-19 09:21 51.454597 -0.677372 261 4347ft 188kts
20-Feb-19 09:22 51.455271 -0.773181 266 5018ft 244kts
20-Feb-19 09:23 51.454077 -0.890374 272 6757ft 279kts
20-Feb-19 09:24 51.468609 -1.016498 278 9008ft 295kts
20-Feb-19 09:25 51.483811 -1.150031 276 10653ft 327kts
20-Feb-19 09:26 51.502723 -1.308594 278 11614ft 386kts
20-Feb-19 09:27 51.527655 -1.481347 286 13882ft 408kts
20-Feb-19 09:27 51.566566 -1.622481 290 15758ft 420kts
20-Feb-19 09:29 51.623682 -1.825349 289 18154ft 433kts
20-Feb-19 09:29 51.664553 -1.975792 289 19665ft 444kts
20-Feb-19 09:30 51.714555 -2.160177 289 21329ft 456kts
20-Feb-19 09:32 51.774444 -2.382615 288 23093ft 469kts
20-Feb-19 09:32 51.817386 -2.545269 286 24251ft 476kts
20-Feb-19 09:33 51.859276 -2.750312 283 25476ft 483kts
20-Feb-19 09:35 51.907926 -2.989896 283 27468ft 477kts
20-Feb-19 09:35 51.941446 -3.159953 282 28851ft 474kts
20-Feb-19 09:36 52.002134 -3.351355 298 30119ft 484kts
20-Feb-19 09:37 52.079468 -3.531398 298 30106ft 486kts
20-Feb-19 09:38 52.155756 -3.712571 298 30101ft 484kts
20-Feb-19 09:39 52.232285 -3.892720 298 30093ft 484kts
20-Feb-19 09:40 52.308459 -4.073974 297 30087ft 483kts
20-Feb-19 09:41 52.383211 -4.255691 297 30115ft 482kts
20-Feb-19 09:42 52.464212 -4.432283 307 31537ft 488kts
20-Feb-19 09:43 52.557672 -4.593296 307 32044ft 486kts
20-Feb-19 09:44 52.649627 -4.755971 307 32031ft 483kts
20-Feb-19 09:45 52.740581 -4.917885 307 31999ft 481kts
20-Feb-19 09:46 52.830918 -5.079961 307 31989ft 478kts
20-Feb-19 09:47 52.921504 -5.240725 308 31981ft 476kts
20-Feb-19 09:48 53.010757 -5.403032 308 31971ft 474kts
20-Feb-19 09:49 53.102486 -5.560116 313 31957ft 476kts
20-Feb-19 09:50 53.201214 -5.707472 313 31947ft 476kts
20-Feb-19 09:51 53.299119 -5.856292 313 31919ft 475kts
20-Feb-19 09:52 53.397521 -6.004832 314 31898ft 475kts
20-Feb-19 09:53 53.493950 -6.152338 314 31905ft 468kts
20-Feb-19 09:54 53.590236 -6.300905 314 31903ft 469kts
20-Feb-19 09:55 53.686218 -6.450012 314 31888ft 468kts
20-Feb-19 09:56 53.781720 -6.599343 314 31886ft 466kts
20-Feb-19 09:57 53.876299 -6.748194 314 31872ft 463kts
20-Feb-19 09:58 53.969981 -6.896584 314 31841ft 459kts
20-Feb-19 09:59 54.063293 -7.044747 315 31816ft 461kts
20-Feb-19 10:00 54.156403 -7.193986 314 31790ft 456kts
20-Feb-19 10:01 54.247925 -7.342444 314 31776ft 452kts
20-Feb-19 10:02 54.352206 -7.460113 330 31770ft 453kts
20-Feb-19 10:03 54.464945 -7.559420 329 31763ft 454kts
20-Feb-19 10:04 54.576715 -7.659995 329 31759ft 453kts
20-Feb-19 10:05 54.688846 -7.760143 329 31762ft 455kts
20-Feb-19 10:06 54.801049 -7.861837 329 31764ft 456kts
20-Feb-19 10:07 54.913857 -7.964939 329 31771ft 458kts
20-Feb-19 10:08 55.025698 -8.067836 330 31779ft 451kts
20-Feb-19 10:09 55.137387 -8.171247 330 31782ft 455kts
20-Feb-19 10:10 55.249107 -8.275380 330 31780ft 456kts
20-Feb-19 10:11 55.361091 -8.380415 330 31784ft 457kts
20-Feb-19 10:12 55.473633 -8.486666 330 31786ft 458kts
20-Feb-19 10:13 55.585906 -8.593355 330 31786ft 459kts
20-Feb-19 10:14 55.697996 -8.700567 329 31788ft 457kts
20-Feb-19 10:15 55.809791 -8.808202 329 31789ft 457kts
20-Feb-19 10:16 55.921348 -8.916317 329 31788ft 456kts
20-Feb-19 10:17 56.032658 -9.024907 329 31777ft 456kts
20-Feb-19 10:18 56.144368 -9.134614 329 31766ft 456kts
20-Feb-19 10:19 56.255142 -9.244129 329 31762ft 454kts
20-Feb-19 10:20 56.365693 -9.354154 329 31759ft 454kts
20-Feb-19 10:21 56.476032 -9.464703 329 31755ft 453kts
20-Feb-19 10:22 56.586279 -9.575903 329 31749ft 453kts
20-Feb-19 10:23 56.696024 -9.687348 329 31747ft 452kts
20-Feb-19 10:24 56.806023 -9.799079 328 31744ft 452kts
20-Feb-19 10:25 56.915604 -9.912364 328 31742ft 454kts
20-Feb-19 10:26 57.023303 -10.032609 321 31742ft 452kts
20-Feb-19 10:27 57.120212 -10.178744 318 31739ft 450kts
20-Feb-19 10:28 57.217027 -10.326222 318 31736ft 452kts
20-Feb-19 10:29 57.314518 -10.473127 319 31735ft 452kts
20-Feb-19 10:30 57.411707 -10.620135 318 31733ft 451kts
20-Feb-19 10:31 57.508778 -10.768843 318 31732ft 451kts
20-Feb-19 10:32 57.605443 -10.918129 318 31705ft 452kts
20-Feb-19 10:33 57.702066 -11.068463 318 31704ft 452kts
20-Feb-19 10:34 57.798765 -11.219980 317 31702ft 453kts
20-Feb-19 10:35 57.895193 -11.372204 317 31700ft 452kts
20-Feb-19 10:36 57.991529 -11.525378 317 31699ft 453kts
20-Feb-19 10:37 58.087258 -11.678687 316 31696ft 451kts
20-Feb-19 10:38 58.183196 -11.833477 316 31694ft 453kts
20-Feb-19 10:39 58.278918 -11.989050 316 31692ft 452kts
20-Feb-19 10:40 58.374138 -12.144928 316 31658ft 453kts
20-Feb-19 10:41 58.469517 -12.302273 316 31604ft 452kts
20-Feb-19 10:42 58.564715 -12.460475 316 31596ft 452kts
20-Feb-19 10:43 58.659434 -12.619060 315 31589ft 452kts
20-Feb-19 10:44 58.754088 -12.778715 315 31583ft 452kts
20-Feb-19 10:45 58.848726 -12.939577 315 31575ft 453kts
20-Feb-19 10:46 58.942906 -13.100865 315 31567ft 452kts
20-Feb-19 10:47 59.036976 -13.263203 314 31561ft 453kts
20-Feb-19 10:48 59.131169 -13.426989 314 31555ft 453kts
20-Feb-19 10:49 59.224719 -13.590915 314 31549ft 453kts
20-Feb-19 10:50 59.318327 -13.756220 314 31543ft 453kts
20-Feb-19 10:51 59.411420 -13.921863 314 31537ft 452kts
20-Feb-19 10:52 59.504436 -14.088694 313 31533ft 454kts
20-Feb-19 10:53 59.597756 -14.257385 313 31527ft 454kts
20-Feb-19 10:54 59.690390 -14.426137 313 31565ft 454kts
20-Feb-19 10:55 59.783480 -14.596225 313 31573ft 455kts
20-Feb-19 10:56 59.876439 -14.768055 312 31567ft 457kts
20-Feb-19 10:57 59.969235 -14.942129 312 31561ft 458kts
20-Feb-19 10:58 60.035124 -15.153320 291 31556ft 446kts
20-Feb-19 10:59 60.084372 -15.380867 290 31480ft 446kts
20-Feb-19 11:00 60.133682 -15.609872 290 31470ft 448kts
20-Feb-19 11:01 60.184882 -15.838782 290 31463ft 450kts
20-Feb-19 11:02 60.234909 -16.069298 289 31457ft 450kts
20-Feb-19 11:03 60.284276 -16.300754 289 31451ft 450kts
20-Feb-19 11:04 60.333237 -16.533144 289 31446ft 450kts
20-Feb-19 11:05 60.382289 -16.768551 288 31440ft 465kts
20-Feb-19 11:06 60.432594 -17.013049 287 31435ft 473kts
20-Feb-19 11:07 60.482730 -17.259601 287 31429ft 474kts
20-Feb-19 11:08 60.532533 -17.507508 286 31424ft 476kts
20-Feb-19 11:09 60.582209 -17.757877 286 31419ft 477kts
20-Feb-19 11:10 60.631422 -18.009039 286 31423ft 477kts
20-Feb-19 11:11 60.680257 -18.261433 285 31418ft 480kts
20-Feb-19 11:12 60.728731 -18.515227 285 31414ft 479kts
20-Feb-19 11:13 60.776720 -18.769707 285 31383ft 480kts
20-Feb-19 11:14 60.824289 -19.025353 284 31371ft 480kts
20-Feb-19 11:15 60.871431 -19.282042 284 31368ft 482kts
20-Feb-19 11:16 60.918942 -19.539227 284 31359ft 483kts
20-Feb-19 11:17 60.964707 -19.798553 283 31357ft 483kts
20-Feb-19 11:18 61.019477 -20.052486 297 31360ft 494kts
20-Feb-19 11:20 61.102547 -20.282207 301 31352ft 503kts
20-Feb-19 11:21 61.186067 -20.513200 300 31334ft 500kts
20-Feb-19 11:22 61.270477 -20.743905 301 31333ft 502kts
20-Feb-19 11:23 61.354405 -20.977502 300 31329ft 503kts
20-Feb-19 11:24 61.437522 -21.212625 300 31329ft 504kts
20-Feb-19 11:25 61.520200 -21.449058 299 31328ft 503kts
20-Feb-19 11:26 61.602285 -21.686244 299 31327ft 503kts
20-Feb-19 11:27 61.684232 -21.925468 299 31316ft 502kts
20-Feb-19 11:28 61.765376 -22.164874 299 31313ft 503kts
20-Feb-19 11:29 61.846332 -22.406223 299 31311ft 503kts
20-Feb-19 11:30 61.926835 -22.648756 298 31298ft 506kts
20-Feb-19 11:31 62.007726 -22.895055 298 31291ft 509kts
20-Feb-19 11:32 62.087622 -23.140967 298 31286ft 503kts
20-Feb-19 11:33 62.167045 -23.388059 298 31285ft 506kts
20-Feb-19 11:34 62.246405 -23.637646 298 31284ft 509kts
20-Feb-19 11:35 62.325910 -23.890457 297 31283ft 510kts
20-Feb-19 11:36 62.404856 -24.144213 297 31280ft 510kts
20-Feb-19 11:37 62.483151 -24.398833 297 31281ft 509kts
20-Feb-19 11:38 62.560993 -24.654764 297 31281ft 507kts
20-Feb-19 11:39 62.638027 -24.910904 297 31279ft 506kts
20-Feb-19 11:40 62.714470 -25.167963 296 31270ft 506kts
20-Feb-19 11:41 62.790554 -25.426740 296 31267ft 507kts
20-Feb-19 11:41 62.853594 -25.643411 296 31265ft 507kts
20-Feb-19 11:43 62.941408 -25.948715 296 31262ft 506kts
20-Feb-19 11:44 63.015940 -26.211148 295 31260ft 507kts
20-Feb-19 11:44 63.077950 -26.431828 295 31194ft 505kts
20-Feb-19 11:45 63.151570 -26.696665 295 31190ft 506kts
20-Feb-19 11:46 63.224692 -26.962841 295 31189ft 506kts
20-Feb-19 11:47 63.297263 -27.230170 294 31186ft 506kts
20-Feb-19 11:48 63.369430 -27.499214 294 31183ft 505kts
20-Feb-19 11:49 63.440840 -27.768664 294 31180ft 503kts
20-Feb-19 11:50 63.511479 -28.038447 293 31174ft 502kts
20-Feb-19 11:51 63.581726 -28.310027 293 31173ft 504kts
20-Feb-19 11:52 63.651598 -28.583466 293 31194ft 504kts
20-Feb-19 11:53 63.721062 -28.858684 293 31189ft 506kts
20-Feb-19 11:54 63.790166 -29.136030 292 31185ft 507kts
20-Feb-19 11:55 63.859241 -29.414401 293 31180ft 507kts
20-Feb-19 11:56 63.927172 -29.693772 291 31174ft 505kts
20-Feb-19 11:57 63.994109 -29.975073 291 31168ft 503kts
20-Feb-19 11:58 64.062709 -30.253816 292 31161ft 504kts
20-Feb-19 11:59 64.130696 -30.533963 291 31155ft 502kts
20-Feb-19 12:00 64.198963 -30.812909 292 31148ft 501kts
20-Feb-19 12:01 64.267243 -31.092105 291 31152ft 501kts
20-Feb-19 12:02 64.334204 -31.373575 291 31144ft 502kts
20-Feb-19 12:03 64.401068 -31.658905 291 31136ft 504kts
20-Feb-19 12:04 64.467230 -31.945067 290 31129ft 506kts
20-Feb-19 12:05 64.533043 -32.233541 290 31120ft 505kts
20-Feb-19 12:06 64.597908 -32.521710 290 31112ft 502kts
20-Feb-19 12:07 64.661980 -32.810205 289 31105ft 500kts
20-Feb-19 12:08 64.725254 -33.098947 289 31098ft 498kts
20-Feb-19 12:09 64.787876 -33.388705 288 31090ft 498kts
20-Feb-19 12:10 64.850056 -33.680370 288 31084ft 498kts
20-Feb-19 12:11 64.911410 -33.972170 288 31078ft 498kts
20-Feb-19 12:12 64.972432 -34.266426 287 31072ft 498kts
20-Feb-19 12:13 65.032500 -34.560268 287 31067ft 496kts
20-Feb-19 12:14 65.091900 -34.854949 286 31063ft 495kts
20-Feb-19 12:15 65.150615 -35.150416 286 31059ft 494kts
20-Feb-19 12:16 65.208832 -35.447632 285 31056ft 493kts
20-Feb-19 12:17 65.265981 -35.743638 285 31055ft 491kts
20-Feb-19 12:18 65.322137 -36.038745 285 31051ft 489kts
20-Feb-19 12:19 65.378225 -36.337903 284 31050ft 489kts
20-Feb-19 12:20 65.433305 -36.636022 284 31050ft 490kts
20-Feb-19 12:21 65.487898 -36.936008 283 31049ft 491kts
20-Feb-19 12:22 65.542122 -37.238486 283 31048ft 490kts
20-Feb-19 12:23 65.595029 -37.538137 282 31052ft 488kts
20-Feb-19 12:24 65.647749 -37.841461 282 31052ft 483kts
20-Feb-19 12:25 65.699372 -38.142940 281 31050ft 483kts
20-Feb-19 12:26 65.750389 -38.445414 281 31054ft 484kts
20-Feb-19 12:27 65.800990 -38.750641 281 31052ft 487kts
20-Feb-19 12:28 65.850882 -39.056161 280 31055ft 486kts
20-Feb-19 12:29 65.901403 -39.364576 280 31061ft 488kts
20-Feb-19 12:30 65.949565 -39.671699 279 31064ft 484kts
20-Feb-19 12:31 65.996835 -39.979365 278 31071ft 480kts
20-Feb-19 12:32 66.038832 -40.288606 276 31059ft 475kts
20-Feb-19 12:33 66.078961 -40.599345 276 31064ft 477kts
20-Feb-19 12:34 66.119813 -40.912678 278 31074ft 482kts
20-Feb-19 12:35 66.161795 -41.225970 276 31072ft 479kts
20-Feb-19 12:36 66.201645 -41.539528 275 31082ft 479kts
20-Feb-19 12:37 66.240846 -41.855572 275 31080ft 479kts
20-Feb-19 12:38 66.279368 -42.172793 275 31086ft 477kts
20-Feb-19 12:39 66.317223 -42.490818 275 31096ft 480kts
20-Feb-19 12:40 66.354576 -42.810999 275 31103ft 484kts
20-Feb-19 12:41 66.391467 -43.133881 276 31111ft 484kts
20-Feb-19 12:42 66.427825 -43.459196 275 31125ft 485kts
20-Feb-19 12:43 66.463551 -43.784910 275 31116ft 485kts
20-Feb-19 12:44 66.498519 -44.111942 275 31133ft 489kts
20-Feb-19 12:45 66.533153 -44.442802 275 31129ft 490kts
20-Feb-19 12:46 66.567332 -44.777438 276 31146ft 498kts
20-Feb-19 12:47 66.601300 -45.117470 276 31152ft 502kts
20-Feb-19 12:48 66.634636 -45.459914 277 31159ft 505kts
20-Feb-19 12:49 66.667375 -45.804844 276 31159ft 508kts
20-Feb-19 12:50 66.699588 -46.152619 277 31175ft 512kts
20-Feb-19 12:51 66.731108 -46.503075 276 31175ft 507kts
20-Feb-19 12:52 66.761791 -46.852882 276 31187ft 513kts
20-Feb-19 12:53 66.791927 -47.206873 276 31189ft 514kts
20-Feb-19 12:54 66.821285 -47.561487 276 31199ft 513kts
20-Feb-19 12:55 66.849806 -47.916360 276 31194ft 513kts
20-Feb-19 12:56 66.877509 -48.272219 276 31205ft 514kts
20-Feb-19 12:57 66.904405 -48.629225 276 31211ft 514kts
20-Feb-19 12:58 66.930427 -48.984891 275 31205ft 514kts
20-Feb-19 12:59 66.956915 -49.342531 276 31217ft 510kts
20-Feb-19 13:00 66.980551 -49.698973 275 31221ft 509kts
20-Feb-19 13:01 67.002388 -50.055733 271 31224ft 507kts
20-Feb-19 13:02 67.011826 -50.413995 269 31226ft 503kts
20-Feb-19 13:03 67.019931 -50.772438 268 31250ft 504kts
20-Feb-19 13:04 67.030333 -51.128823 270 32812ft 500kts
20-Feb-19 13:05 67.039456 -51.484936 269 33226ft 499kts
20-Feb-19 13:06 67.046981 -51.838878 269 33229ft 499kts
20-Feb-19 13:07 67.053628 -52.193215 268 33233ft 498kts
20-Feb-19 13:08 67.059496 -52.549173 268 33237ft 498kts
20-Feb-19 13:09 67.064542 -52.903142 268 33242ft 497kts
20-Feb-19 13:10 67.068803 -53.257292 268 33247ft 497kts
20-Feb-19 13:11 67.072274 -53.611208 267 33253ft 496kts
20-Feb-19 13:12 67.074961 -53.965209 267 33260ft 497kts
20-Feb-19 13:13 67.076863 -54.319505 267 33267ft 495kts
20-Feb-19 13:14 67.077978 -54.672452 266 33274ft 495kts
20-Feb-19 13:15 67.078312 -55.026083 266 33284ft 495kts
20-Feb-19 13:16 67.077865 -55.379342 266 33292ft 494kts
20-Feb-19 13:17 67.076642 -55.731572 266 33300ft 494kts
20-Feb-19 13:18 67.074631 -56.084677 265 33285ft 493kts
20-Feb-19 13:19 67.071868 -56.435489 265 33294ft 493kts
20-Feb-19 13:20 67.068325 -56.786759 265 33301ft 492kts
20-Feb-19 13:21 67.064017 -57.137463 265 33309ft 491kts
20-Feb-19 13:22 67.058944 -57.487574 265 33317ft 490kts
20-Feb-19 13:23 67.053135 -57.836033 264 33320ft 490kts
20-Feb-19 13:24 67.046556 -58.184771 264 33323ft 488kts
20-Feb-19 13:25 67.039257 -58.531495 264 33325ft 488kts
20-Feb-19 13:26 67.031196 -58.878507 264 33325ft 487kts
20-Feb-19 13:27 67.022784 -59.224826 265 33325ft 487kts
20-Feb-19 13:29 67.013670 -59.570886 263 33320ft 486kts
20-Feb-19 13:30 67.002704 -59.915300 263 33316ft 486kts
20-Feb-19 13:31 66.983373 -60.255744 257 33305ft 483kts
20-Feb-19 13:32 66.958538 -60.593453 257 33297ft 483kts
20-Feb-19 13:33 66.933924 -60.928912 258 33287ft 482kts
20-Feb-19 13:34 66.911641 -61.266806 257 33277ft 482kts
20-Feb-19 13:35 66.887017 -61.600974 257 33272ft 481kts
20-Feb-19 13:36 66.861379 -61.934850 256 33290ft 480kts
20-Feb-19 13:37 66.835019 -62.267716 256 33308ft 479kts
20-Feb-19 13:38 66.808067 -62.598577 256 33352ft 479kts
20-Feb-19 13:39 66.780405 -62.928908 256 33404ft 479kts
20-Feb-19 13:40 66.752030 -63.258730 255 33461ft 478kts
20-Feb-19 13:41 66.722979 -63.587694 255 33512ft 478kts
20-Feb-19 13:42 66.693395 -63.914227 255 33556ft 477kts
20-Feb-19 13:43 66.663073 -64.240636 254 33598ft 477kts
20-Feb-19 13:44 66.632170 -64.565269 254 33632ft 477kts
20-Feb-19 13:45 66.600501 -64.890034 254 33663ft 477kts
20-Feb-19 13:46 66.568212 -65.213530 253 33727ft 477kts
20-Feb-19 13:47 66.535263 -65.536145 253 33730ft 476kts
20-Feb-19 13:47 66.507394 -65.803418 253 33736ft 476kts
20-Feb-19 13:49 66.467528 -66.177388 253 33738ft 476kts
20-Feb-19 13:50 66.432666 -66.496817 252 33737ft 476kts
20-Feb-19 13:50 66.403147 -66.762050 252 33738ft 476kts
20-Feb-19 13:51 66.367163 -67.079233 252 33735ft 475kts
20-Feb-19 13:53 66.324373 -67.448091 252 33739ft 475kts
20-Feb-19 13:54 66.287072 -67.762641 252 33729ft 475kts
20-Feb-19 13:54 66.255484 -68.024251 251 33722ft 474kts
20-Feb-19 13:55 66.216967 -68.337604 251 33720ft 474kts
20-Feb-19 13:56 66.177905 -68.649232 251 33728ft 475kts
20-Feb-19 13:57 66.138074 -68.961173 251 33737ft 475kts
20-Feb-19 13:58 66.097919 -69.271287 252 33738ft 476kts
20-Feb-19 13:59 66.057323 -69.582523 250 33739ft 476kts
20-Feb-19 14:00 66.014989 -69.890941 250 33740ft 476kts
20-Feb-19 14:01 65.966296 -70.192941 244 33729ft 475kts
20-Feb-19 14:02 65.911547 -70.487626 244 33730ft 475kts
20-Feb-19 14:03 65.856714 -70.781309 245 33731ft 475kts
20-Feb-19 14:04 65.803974 -71.077698 245 33705ft 476kts
20-Feb-19 14:05 65.749221 -71.371282 245 33728ft 476kts
20-Feb-19 14:06 65.693489 -71.664346 244 33729ft 477kts
20-Feb-19 14:07 65.637313 -71.955290 244 33736ft 477kts
20-Feb-19 14:08 65.580530 -72.245250 244 33760ft 477kts
20-Feb-19 14:09 65.522998 -72.534916 244 33766ft 477kts
20-Feb-19 14:10 65.465161 -72.822116 243 33773ft 476kts
20-Feb-19 14:11 65.406824 -73.107835 243 33763ft 476kts
20-Feb-19 14:12 65.347975 -73.392166 243 33771ft 477kts
20-Feb-19 14:13 65.288554 -73.675418 243 33778ft 477kts
20-Feb-19 14:14 65.228515 -73.957819 243 33786ft 477kts
20-Feb-19 14:15 65.167799 -74.239641 242 33792ft 477kts
20-Feb-19 14:16 65.107732 -74.519705 242 33799ft 476kts
20-Feb-19 14:17 65.045454 -74.798016 242 33805ft 477kts
20-Feb-19 14:18 64.985277 -75.077367 246 33811ft 477kts
20-Feb-19 14:19 64.933646 -75.366071 247 33814ft 477kts
20-Feb-19 14:20 64.880852 -75.652405 246 33818ft 477kts
20-Feb-19 14:21 64.829344 -75.939432 247 33822ft 476kts
20-Feb-19 14:22 64.776899 -76.224880 246 33825ft 478kts
20-Feb-19 14:23 64.723098 -76.510196 246 33826ft 478kts
20-Feb-19 14:24 64.668863 -76.793373 246 33831ft 478kts
20-Feb-19 14:25 64.614032 -77.075659 246 33831ft 478kts
20-Feb-19 14:26 64.558557 -77.357336 246 33832ft 479kts
20-Feb-19 14:27 64.502503 -77.638087 246 33833ft 479kts
20-Feb-19 14:28 64.445957 -77.917493 245 33835ft 479kts
20-Feb-19 14:29 64.388702 -78.196620 245 33830ft 479kts
20-Feb-19 14:30 64.331062 -78.473903 245 33837ft 479kts
20-Feb-19 14:31 64.272909 -78.749974 245 33918ft 481kts
20-Feb-19 14:32 64.213912 -79.026440 245 33890ft 481kts
20-Feb-19 14:33 64.154441 -79.301523 245 33882ft 481kts
20-Feb-19 14:34 64.095346 -79.575620 245 33888ft 481kts
20-Feb-19 14:35 64.034303 -79.847657 244 33894ft 481kts
20-Feb-19 14:36 63.968840 -80.114032 239 33899ft 483kts
20-Feb-19 14:37 63.894155 -80.368203 238 33902ft 483kts
20-Feb-19 14:38 63.819397 -80.621749 238 33906ft 482kts
20-Feb-19 14:39 63.746781 -80.875820 239 33916ft 481kts
20-Feb-19 14:40 63.672891 -81.127690 239 33919ft 481kts
20-Feb-19 14:41 63.598272 -81.377737 238 33909ft 482kts
20-Feb-19 14:42 63.523153 -81.626460 238 33911ft 482kts
20-Feb-19 14:43 63.447403 -81.874504 238 33918ft 482kts
20-Feb-19 14:44 63.371049 -82.121792 238 33919ft 482kts
20-Feb-19 14:45 63.294706 -82.366376 238 33918ft 481kts
20-Feb-19 14:46 63.217902 -82.609806 238 33918ft 480kts
20-Feb-19 14:47 63.141072 -82.850733 238 33919ft 479kts
20-Feb-19 14:48 63.063897 -83.090191 237 33919ft 479kts
20-Feb-19 14:49 62.986263 -83.328556 237 33920ft 478kts
20-Feb-19 14:50 62.908467 -83.564938 237 33926ft 477kts
20-Feb-19 14:51 62.830122 -83.800531 237 33928ft 477kts
20-Feb-19 14:52 62.751777 -84.033692 237 33929ft 476kts
20-Feb-19 14:53 62.673193 -84.265218 237 33930ft 475kts
20-Feb-19 14:54 62.594152 -84.495736 237 33932ft 475kts
20-Feb-19 14:55 62.514754 -84.724963 237 33950ft 475kts
20-Feb-19 14:56 62.435096 -84.952647 236 33953ft 475kts
20-Feb-19 14:57 62.354866 -85.179690 236 33956ft 475kts
20-Feb-19 14:58 62.274516 -85.404827 236 33958ft 474kts
20-Feb-19 14:59 62.193969 -85.628305 236 33939ft 473kts
20-Feb-19 15:00 62.113072 -85.850578 236 33942ft 473kts
20-Feb-19 15:01 62.031678 -86.072049 236 33945ft 473kts
20-Feb-19 15:02 61.950322 -86.291285 235 33959ft 473kts
20-Feb-19 15:03 61.868592 -86.509424 235 34067ft 473kts
20-Feb-19 15:04 61.786406 -86.726703 235 34074ft 471kts
20-Feb-19 15:05 61.704484 -86.941243 235 34079ft 470kts
20-Feb-19 15:06 61.621935 -87.155386 235 34084ft 469kts
20-Feb-19 15:07 61.539324 -87.367717 234 34089ft 470kts
20-Feb-19 15:08 61.456371 -87.578948 234 34093ft 470kts
20-Feb-19 15:09 61.373033 -87.789205 234 34146ft 470kts
20-Feb-19 15:10 61.289214 -87.998738 234 34158ft 470kts
20-Feb-19 15:11 61.205465 -88.206186 234 34160ft 468kts
20-Feb-19 15:12 61.121474 -88.412351 234 34162ft 467kts
20-Feb-19 15:13 61.037500 -88.616629 234 34164ft 466kts
20-Feb-19 15:14 60.953412 -88.819350 233 34166ft 466kts
20-Feb-19 15:15 60.869002 -89.021070 233 34172ft 465kts
20-Feb-19 15:16 60.784217 -89.221880 233 34174ft 464kts
20-Feb-19 15:17 60.699607 -89.420543 233 34177ft 463kts
20-Feb-19 15:18 60.614614 -89.618365 233 34178ft 462kts
20-Feb-19 15:19 60.529669 -89.814369 233 34180ft 461kts
20-Feb-19 15:20 60.444872 -90.008365 233 34182ft 460kts
20-Feb-19 15:21 60.359809 -90.201319 233 34185ft 459kts
20-Feb-19 15:22 60.274559 -90.393042 233 34225ft 459kts
20-Feb-19 15:23 60.189190 -90.585005 233 34222ft 460kts
20-Feb-19 15:24 60.102980 -90.775316 232 34229ft 460kts
20-Feb-19 15:25 60.016438 -90.964150 232 34230ft 460kts
20-Feb-19 15:26 59.937821 -91.162380 237 34229ft 451kts
20-Feb-19 15:27 59.862103 -91.361440 237 34230ft 452kts
20-Feb-19 15:28 59.785500 -91.560074 237 34231ft 451kts
20-Feb-19 15:29 59.710106 -91.759329 237 34231ft 452kts
20-Feb-19 15:30 59.633587 -91.956619 237 34254ft 452kts
20-Feb-19 15:31 59.556617 -92.152884 236 34253ft 452kts
20-Feb-19 15:32 59.479239 -92.348487 236 34252ft 451kts
20-Feb-19 15:33 59.401973 -92.542176 236 34249ft 450kts
20-Feb-19 15:34 59.324499 -92.734785 236 34250ft 450kts
20-Feb-19 15:35 59.246731 -92.926548 236 34247ft 449kts
20-Feb-19 15:36 59.168860 -93.117000 236 34245ft 449kts
20-Feb-19 15:37 59.090581 -93.306919 235 34242ft 448kts
20-Feb-19 15:38 59.012285 -93.495346 235 34436ft 450kts
20-Feb-19 15:39 58.933559 -93.684169 236 34836ft 450kts
20-Feb-19 15:41 58.854411 -93.872190 235 35235ft 451kts
20-Feb-19 15:42 58.774558 -94.058688 234 35634ft 450kts
20-Feb-19 15:43 58.681455 -94.221773 220 36035ft 460kts
20-Feb-19 15:44 58.576018 -94.363432 220 36235ft 462kts
20-Feb-19 15:45 58.471371 -94.504933 220 36236ft 461kts
20-Feb-19 15:46 58.367203 -94.648144 220 36226ft 460kts
20-Feb-19 15:47 58.262995 -94.789100 220 36215ft 460kts
20-Feb-19 15:48 58.158088 -94.929599 220 36204ft 461kts
20-Feb-19 15:49 58.053461 -95.068628 219 36191ft 460kts
20-Feb-19 15:50 57.948642 -95.206890 219 36178ft 459kts
20-Feb-19 15:51 57.844012 -95.343904 219 36175ft 458kts
20-Feb-19 15:52 57.739194 -95.480176 219 36163ft 458kts
20-Feb-19 15:53 57.634292 -95.615581 219 36151ft 458kts
20-Feb-19 15:54 57.529279 -95.750167 219 36139ft 458kts
20-Feb-19 15:55 57.423982 -95.884153 218 36130ft 459kts
20-Feb-19 15:56 57.318553 -96.017364 218 36122ft 458kts
20-Feb-19 15:57 57.212891 -96.149925 218 36115ft 458kts
20-Feb-19 15:57 57.124959 -96.259535 218 36109ft 458kts
20-Feb-19 15:59 57.001608 -96.412222 217 36101ft 458kts
20-Feb-19 16:00 56.895689 -96.542342 217 36095ft 458kts
20-Feb-19 16:01 56.789630 -96.671731 217 36084ft 458kts
20-Feb-19 16:01 56.700977 -96.779215 217 36082ft 458kts
20-Feb-19 16:02 56.594910 -96.906993 217 36076ft 459kts
20-Feb-19 16:04 56.470572 -97.055681 216 36066ft 458kts
20-Feb-19 16:04 56.381623 -97.161322 216 36058ft 458kts
20-Feb-19 16:05 56.275270 -97.286855 216 36039ft 458kts
20-Feb-19 16:06 56.168396 -97.412154 216 36036ft 457kts
20-Feb-19 16:07 56.061841 -97.536703 216 36030ft 457kts
20-Feb-19 16:08 55.954844 -97.660615 215 36031ft 457kts
20-Feb-19 16:09 55.847895 -97.783033 215 36030ft 458kts
20-Feb-19 16:10 55.753260 -97.931856 229 36029ft 453kts
20-Feb-19 16:11 55.667792 -98.095120 229 36029ft 452kts
20-Feb-19 16:12 55.581214 -98.257251 228 36031ft 453kts
20-Feb-19 16:13 55.494906 -98.421013 228 36023ft 454kts
20-Feb-19 16:14 55.408305 -98.582445 228 36017ft 455kts
20-Feb-19 16:15 55.320698 -98.744187 227 36011ft 456kts
20-Feb-19 16:16 55.233086 -98.904762 227 36004ft 456kts
20-Feb-19 16:17 55.145037 -99.065039 227 35998ft 457kts
20-Feb-19 16:18 55.056391 -99.225305 227 35992ft 458kts
20-Feb-19 16:19 54.967674 -99.384613 226 35986ft 458kts
20-Feb-19 16:20 54.878782 -99.543162 226 35998ft 459kts
20-Feb-19 16:21 54.789168 -99.701925 226 35993ft 460kts
20-Feb-19 16:22 54.699468 -99.859775 226 35989ft 461kts
20-Feb-19 16:23 54.608942 -100.018013 225 35980ft 461kts
20-Feb-19 16:24 54.518644 -100.174797 225 35980ft 463kts
20-Feb-19 16:25 54.427641 -100.331759 225 35978ft 463kts
20-Feb-19 16:26 54.336558 -100.487819 225 35976ft 463kts
20-Feb-19 16:27 54.244922 -100.643791 225 35974ft 463kts
20-Feb-19 16:28 54.153756 -100.799057 225 35973ft 463kts
20-Feb-19 16:29 54.062089 -100.952459 224 35971ft 462kts
20-Feb-19 16:30 53.969527 -101.104382 220 35970ft 465kts
20-Feb-19 16:31 53.865556 -101.235962 215 35970ft 466kts
20-Feb-19 16:32 53.760709 -101.364804 216 35969ft 466kts
20-Feb-19 16:33 53.655895 -101.494782 216 35969ft 466kts
20-Feb-19 16:34 53.551479 -101.624226 216 35968ft 467kts
20-Feb-19 16:35 53.446685 -101.752610 215 35963ft 467kts
20-Feb-19 16:36 53.341311 -101.880794 215 35960ft 467kts
20-Feb-19 16:37 53.236119 -102.007930 215 35938ft 467kts
20-Feb-19 16:38 53.130031 -102.135366 215 35932ft 469kts
20-Feb-19 16:39 53.023966 -102.261953 215 35926ft 471kts
20-Feb-19 16:40 52.917078 -102.388780 214 35921ft 472kts
20-Feb-19 16:41 52.810296 -102.514681 214 35912ft 472kts
20-Feb-19 16:42 52.702808 -102.640632 214 35907ft 473kts
20-Feb-19 16:43 52.595623 -102.765455 214 35900ft 473kts
20-Feb-19 16:44 52.487629 -102.890456 214 35893ft 474kts
20-Feb-19 16:45 52.379764 -103.014536 214 35887ft 474kts
20-Feb-19 16:46 52.271318 -103.138542 213 35877ft 475kts
20-Feb-19 16:47 52.162715 -103.261966 213 35869ft 476kts
20-Feb-19 16:48 52.053839 -103.384955 213 35862ft 477kts
20-Feb-19 16:49 51.944518 -103.507692 213 35856ft 478kts
20-Feb-19 16:50 51.834925 -103.630004 213 35849ft 478kts
20-Feb-19 16:51 51.725239 -103.751667 213 35849ft 479kts
20-Feb-19 16:52 51.615446 -103.872746 213 35839ft 479kts
20-Feb-19 16:53 51.505522 -103.993244 212 35834ft 478kts
20-Feb-19 16:54 51.395345 -104.113300 212 35833ft 479kts
20-Feb-19 16:55 51.284823 -104.233020 212 35827ft 479kts
20-Feb-19 16:56 51.174521 -104.351800 212 35807ft 479kts
20-Feb-19 16:57 51.063830 -104.470304 212 35802ft 478kts
20-Feb-19 16:58 50.953174 -104.588078 212 35799ft 478kts
20-Feb-19 16:59 50.842900 -104.705349 212 35801ft 479kts
20-Feb-19 17:00 50.731851 -104.821779 212 35799ft 479kts
20-Feb-19 17:01 50.617371 -104.928838 204 35798ft 478kts
20-Feb-19 17:02 50.496662 -105.016522 203 35798ft 478kts
20-Feb-19 17:03 50.375914 -105.105074 204 35804ft 478kts
20-Feb-19 17:04 50.255224 -105.194521 204 35812ft 479kts
20-Feb-19 17:05 50.134536 -105.283079 204 35814ft 480kts
20-Feb-19 17:06 50.013468 -105.371252 204 35813ft 480kts
20-Feb-19 17:07 49.892487 -105.458848 204 35812ft 481kts
20-Feb-19 17:08 49.770789 -105.546469 204 35810ft 481kts
20-Feb-19 17:09 49.649441 -105.633357 204 35808ft 481kts
20-Feb-19 17:10 49.528067 -105.719775 204 35806ft 478kts
20-Feb-19 17:11 49.407621 -105.805075 204 35804ft 476kts
20-Feb-19 17:12 49.287045 -105.890011 204 35804ft 477kts
20-Feb-19 17:13 49.166427 -105.974512 204 35805ft 477kts
20-Feb-19 17:14 49.045287 -106.058922 204 35805ft 478kts
20-Feb-19 17:15 48.924634 -106.142545 205 35806ft 477kts
20-Feb-19 17:16 48.803459 -106.226066 205 35808ft 478kts
20-Feb-19 17:17 48.682259 -106.309193 204 35806ft 478kts
20-Feb-19 17:18 48.560887 -106.391987 205 35805ft 478kts
20-Feb-19 17:19 48.439341 -106.474829 204 35803ft 478kts
20-Feb-19 17:20 48.317995 -106.556527 204 35801ft 478kts
20-Feb-19 17:21 48.196920 -106.639812 208 35799ft 478kts
20-Feb-19 17:22 48.081042 -106.737214 210 35800ft 478kts
20-Feb-19 17:23 47.965296 -106.833851 210 35800ft 477kts
20-Feb-19 17:24 47.849337 -106.930722 210 35798ft 477kts
20-Feb-19 17:25 47.733760 -107.026682 210 35795ft 476kts
20-Feb-19 17:26 47.617911 -107.122066 210 35793ft 476kts
20-Feb-19 17:27 47.501618 -107.217278 209 35791ft 476kts
20-Feb-19 17:28 47.385646 -107.311733 210 35790ft 475kts
20-Feb-19 17:29 47.269853 -107.405565 209 35789ft 475kts
20-Feb-19 17:30 47.153639 -107.499254 209 35789ft 475kts
20-Feb-19 17:31 47.037823 -107.592170 209 35786ft 475kts
20-Feb-19 17:32 46.921662 -107.684896 209 35783ft 474kts
20-Feb-19 17:33 46.805754 -107.776959 209 35778ft 474kts
20-Feb-19 17:34 46.689999 -107.868445 209 35764ft 473kts
20-Feb-19 17:35 46.574172 -107.959542 209 35752ft 472kts
20-Feb-19 17:36 46.458863 -108.049785 209 35741ft 472kts
20-Feb-19 17:37 46.343091 -108.139957 209 35735ft 471kts
20-Feb-19 17:38 46.227642 -108.229442 209 35730ft 471kts
20-Feb-19 17:39 46.112167 -108.318515 209 35725ft 472kts
20-Feb-19 17:40 45.996315 -108.407455 209 35722ft 471kts
20-Feb-19 17:41 45.880726 -108.495769 209 35720ft 470kts
20-Feb-19 17:42 45.765006 -108.583760 208 35719ft 470kts
20-Feb-19 17:43 45.649589 -108.671115 208 35718ft 469kts
20-Feb-19 17:44 45.533974 -108.758206 208 35713ft 469kts
20-Feb-19 17:45 45.418692 -108.844623 208 35704ft 468kts
20-Feb-19 17:46 45.303549 -108.930569 208 35688ft 467kts
20-Feb-19 17:48 45.188242 -109.016221 208 35681ft 467kts
20-Feb-19 17:49 45.072907 -109.101505 208 35672ft 467kts
20-Feb-19 17:50 44.957756 -109.186268 208 35669ft 466kts
20-Feb-19 17:51 44.842724 -109.270555 208 35664ft 466kts
20-Feb-19 17:52 44.727977 -109.354250 207 35663ft 465kts
20-Feb-19 17:53 44.613043 -109.437710 207 35660ft 465kts
20-Feb-19 17:54 44.497876 -109.520963 207 35651ft 464kts
20-Feb-19 17:55 44.383269 -109.603441 207 35643ft 464kts
20-Feb-19 17:56 44.268145 -109.685925 207 35633ft 464kts
20-Feb-19 17:57 44.153626 -109.767610 207 35628ft 463kts
20-Feb-19 17:58 44.038720 -109.849211 207 35630ft 463kts
20-Feb-19 17:59 43.924054 -109.930295 207 35633ft 463kts
20-Feb-19 18:00 43.809076 -110.011232 207 35641ft 463kts
20-Feb-19 18:01 43.694229 -110.091740 207 35641ft 463kts
20-Feb-19 18:02 43.579195 -110.172031 207 35653ft 463kts
20-Feb-19 18:03 43.463658 -110.252322 207 35653ft 464kts
20-Feb-19 18:04 43.348396 -110.332077 207 35654ft 463kts
20-Feb-19 18:05 43.233283 -110.411380 207 35656ft 464kts
20-Feb-19 18:06 43.117930 -110.490526 207 35652ft 463kts
20-Feb-19 18:07 43.002525 -110.569371 207 35654ft 463kts
20-Feb-19 18:07 42.906490 -110.634727 207 35656ft 463kts
20-Feb-19 18:09 42.771503 -110.726203 207 35659ft 464kts
20-Feb-19 18:10 42.656083 -110.804062 207 35660ft 463kts
20-Feb-19 18:11 42.540667 -110.881602 207 35668ft 463kts
20-Feb-19 18:11 42.444240 -110.946135 207 35666ft 464kts
20-Feb-19 18:12 42.328212 -111.023492 207 35666ft 464kts
20-Feb-19 18:14 42.193110 -111.113166 207 35670ft 463kts
20-Feb-19 18:14 42.096708 -111.176888 207 35672ft 464kts
20-Feb-19 18:15 41.980651 -111.253308 207 35682ft 463kts
20-Feb-19 18:16 41.865035 -111.329142 208 35699ft 462kts
20-Feb-19 18:17 41.749587 -111.404558 208 35697ft 462kts
20-Feb-19 18:18 41.633811 -111.479882 207 35705ft 463kts
20-Feb-19 18:19 41.518099 -111.554863 207 35697ft 462kts
20-Feb-19 18:20 41.402290 -111.629611 207 35694ft 462kts
20-Feb-19 18:21 41.295969 -111.697973 207 35704ft 461kts
20-Feb-19 18:22 41.180427 -111.771985 208 35710ft 460kts
20-Feb-19 18:23 41.065275 -111.845727 208 35710ft 460kts
20-Feb-19 18:24 40.949839 -111.918940 208 35718ft 459kts
20-Feb-19 18:25 40.833269 -111.987951 200 35728ft 460kts
20-Feb-19 18:26 40.709060 -112.031185 197 35727ft 465kts
20-Feb-19 18:27 40.583438 -112.073755 197 35720ft 463kts
20-Feb-19 18:28 40.459027 -112.116446 198 35724ft 463kts
20-Feb-19 18:29 40.334151 -112.159191 197 35727ft 462kts
20-Feb-19 18:30 40.210022 -112.201438 198 35731ft 461kts
20-Feb-19 18:31 40.085717 -112.243575 198 35732ft 461kts
20-Feb-19 18:32 39.961471 -112.285533 198 35729ft 461kts
20-Feb-19 18:33 39.837118 -112.327370 198 35723ft 460kts
20-Feb-19 18:34 39.713354 -112.368855 198 35718ft 461kts
20-Feb-19 18:35 39.588944 -112.410493 198 35712ft 460kts
20-Feb-19 18:36 39.464995 -112.451738 198 35711ft 460kts
20-Feb-19 18:37 39.341111 -112.492733 198 35710ft 459kts
20-Feb-19 18:38 39.222640 -112.550729 208 35709ft 454kts
20-Feb-19 18:39 39.107889 -112.618746 207 35707ft 453kts
20-Feb-19 18:40 38.993164 -112.685514 207 35702ft 453kts
20-Feb-19 18:41 38.878777 -112.752308 208 35697ft 452kts
20-Feb-19 18:42 38.764463 -112.818480 208 35694ft 451kts
20-Feb-19 18:43 38.649979 -112.884455 207 35690ft 450kts
20-Feb-19 18:44 38.535754 -112.950040 208 35689ft 450kts
20-Feb-19 18:45 38.421229 -113.015567 208 35690ft 450kts
20-Feb-19 18:46 38.307047 -113.080671 208 35689ft 451kts
20-Feb-19 18:47 38.192159 -113.145951 208 35691ft 451kts
20-Feb-19 18:48 38.077450 -113.210905 208 35691ft 452kts
20-Feb-19 18:49 37.962431 -113.275810 208 35690ft 451kts
20-Feb-19 18:50 37.847949 -113.340198 208 35690ft 450kts
20-Feb-19 18:51 37.733416 -113.404573 208 35693ft 451kts
20-Feb-19 18:52 37.618703 -113.468523 208 35669ft 444kts
20-Feb-19 18:53 37.512043 -113.529187 210 35534ft 398kts
20-Feb-19 18:54 37.405826 -113.593040 210 34020ft 428kts
20-Feb-19 18:55 37.301157 -113.655532 210 32421ft 403kts
20-Feb-19 18:56 37.202852 -113.714301 210 30808ft 380kts
20-Feb-19 18:57 37.109995 -113.769646 209 29218ft 359kts
20-Feb-19 18:58 37.021800 -113.821986 209 27532ft 344kts
20-Feb-19 18:59 36.936788 -113.872265 210 25875ft 330kts
20-Feb-19 19:00 36.852350 -113.922209 210 24225ft 344kts
20-Feb-19 19:01 36.767319 -113.972356 210 22496ft 331kts
20-Feb-19 19:02 36.685178 -114.020499 210 20731ft 323kts
20-Feb-19 19:03 36.604581 -114.067643 209 18972ft 317kts
20-Feb-19 19:04 36.545563 -114.141550 239 17275ft 297kts
20-Feb-19 19:05 36.500009 -114.232884 239 15789ft 325kts
20-Feb-19 19:06 36.452158 -114.326228 238 14012ft 316kts
20-Feb-19 19:07 36.405453 -114.416896 238 12290ft 306kts
20-Feb-19 19:08 36.362695 -114.500149 238 11518ft 269kts
20-Feb-19 19:09 36.322389 -114.578253 237 10632ft 268kts
20-Feb-19 19:10 36.282899 -114.634739 210 9941ft 256kts
20-Feb-19 19:11 36.216724 -114.665961 199 9316ft 254kts
20-Feb-19 19:12 36.150152 -114.694303 199 8723ft 251kts
20-Feb-19 19:13 36.090076 -114.722256 219 8052ft 217kts
20-Feb-19 19:14 36.074373 -114.794508 262 7326ft 225kts
20-Feb-19 19:15 36.073864 -114.871062 266 6141ft 218kts
20-Feb-19 19:16 36.073828 -114.943165 266 5023ft 195kts
20-Feb-19 19:17 36.073770 -115.004820 266 4095ft 169kts
20-Feb-19 19:18 36.073722 -115.060798 266 3219ft 160kts
20-Feb-19 19:19 36.073663 -115.115132 268 2402ft 150kts
20-Feb-19 19:20 36.073731 -115.152321 280 2194ft 34kts
20-Feb-19 19:21 36.074889 -115.155563 298 2194ft 1kts
20-Feb-19 19:22 36.076924 -115.158047 326 2194ft 12kts
20-Feb-19 19:23 36.078037 -115.155217 89 2194ft 13kts
20-Feb-19 19:24 36.077931 -115.149641 94 2194ft 18kts
20-Feb-19 19:25 36.077529 -115.142769 89 2194ft 19kts
20-Feb-19 19:26 36.077536 -115.136650 89 2194ft 15kts
20-Feb-19 19:27 36.078125 -115.132909 356 2194ft 9kts
20-Feb-19 19:28 36.080650 -115.132933 359 2194ft 8kts
20-Feb-19 19:29 36.082753 -115.132940 354 2194ft 6kts
20-Feb-19 19:30 36.084136 -115.134350 337 2194ft 6kts
20-Feb-19 19:31 36.085247 -115.134428 359 2194ft 1kts
20-Feb-19 19:32 36.085423 -115.134428 359 2194ft 0kts
20-Feb-19 19:33 36.085423 -115.134428 359 2194ft 0kts
20-Feb-19 19:34 36.085423 -115.134428 359 2194ft 0kts
20-Feb-19 19:35 36.085423 -115.134428 359 2194ft 0kts

Navigation Log

Ident Type
Flight plan parsing failed, navigation log unavailable